sensor_id;sensor_type;location;lat;lon;timestamp;P1;durP1;ratioP1;P2;durP2;ratioP2
14688;SDS011;7432;48.728;9.154;2022-12-08T00:01:10;9.40;;;8.40;;
14688;SDS011;7432;48.728;9.154;2022-12-08T00:03:37;9.13;;;8.10;;
14688;SDS011;7432;48.728;9.154;2022-12-08T00:06:04;17.07;;;9.07;;
14688;SDS011;7432;48.728;9.154;2022-12-08T00:08:47;9.23;;;8.33;;
14688;SDS011;7432;48.728;9.154;2022-12-08T00:11:31;9.67;;;8.37;;
14688;SDS011;7432;48.728;9.154;2022-12-08T00:13:58;8.97;;;8.07;;
14688;SDS011;7432;48.728;9.154;2022-12-08T00:16:24;9.73;;;7.60;;
14688;SDS011;7432;48.728;9.154;2022-12-08T00:18:51;9.33;;;8.43;;
14688;SDS011;7432;48.728;9.154;2022-12-08T00:21:17;9.53;;;8.57;;
14688;SDS011;7432;48.728;9.154;2022-12-08T00:23:44;9.67;;;8.33;;
14688;SDS011;7432;48.728;9.154;2022-12-08T00:26:11;9.40;;;8.40;;
14688;SDS011;7432;48.728;9.154;2022-12-08T00:28:38;9.20;;;8.30;;
14688;SDS011;7432;48.728;9.154;2022-12-08T00:31:08;10.03;;;8.67;;
14688;SDS011;7432;48.728;9.154;2022-12-08T00:33:36;11.93;;;8.80;;
14688;SDS011;7432;48.728;9.154;2022-12-08T00:36:05;10.83;;;9.00;;
14688;SDS011;7432;48.728;9.154;2022-12-08T00:38:32;11.07;;;9.27;;
14688;SDS011;7432;48.728;9.154;2022-12-08T00:40:58;10.13;;;8.83;;
14688;SDS011;7432;48.728;9.154;2022-12-08T00:43:26;9.27;;;8.37;;
14688;SDS011;7432;48.728;9.154;2022-12-08T00:45:53;9.90;;;8.90;;
14688;SDS011;7432;48.728;9.154;2022-12-08T00:48:19;9.70;;;8.70;;
14688;SDS011;7432;48.728;9.154;2022-12-08T00:50:45;11.20;;;9.57;;
14688;SDS011;7432;48.728;9.154;2022-12-08T00:53:12;9.40;;;8.50;;
14688;SDS011;7432;48.728;9.154;2022-12-08T00:55:38;9.60;;;8.27;;
14688;SDS011;7432;48.728;9.154;2022-12-08T00:58:04;10.20;;;8.80;;
14688;SDS011;7432;48.728;9.154;2022-12-08T01:00:32;9.77;;;8.77;;
14688;SDS011;7432;48.728;9.154;2022-12-08T01:02:59;10.27;;;8.97;;
14688;SDS011;7432;48.728;9.154;2022-12-08T01:05:25;10.90;;;9.20;;
14688;SDS011;7432;48.728;9.154;2022-12-08T01:07:51;9.47;;;8.57;;
14688;SDS011;7432;48.728;9.154;2022-12-08T01:10:18;10.43;;;9.07;;
14688;SDS011;7432;48.728;9.154;2022-12-08T01:12:44;9.80;;;8.80;;
14688;SDS011;7432;48.728;9.154;2022-12-08T01:15:10;11.83;;;10.10;;
14688;SDS011;7432;48.728;9.154;2022-12-08T01:17:38;10.57;;;9.20;;
14688;SDS011;7432;48.728;9.154;2022-12-08T01:20:05;10.27;;;8.50;;
14688;SDS011;7432;48.728;9.154;2022-12-08T01:22:32;10.33;;;8.43;;
14688;SDS011;7432;48.728;9.154;2022-12-08T01:24:59;10.67;;;8.80;;
14688;SDS011;7432;48.728;9.154;2022-12-08T01:27:26;9.93;;;8.87;;
14688;SDS011;7432;48.728;9.154;2022-12-08T01:29:52;11.03;;;9.50;;
14688;SDS011;7432;48.728;9.154;2022-12-08T01:32:19;11.50;;;9.73;;
14688;SDS011;7432;48.728;9.154;2022-12-08T01:34:46;11.60;;;8.83;;
14688;SDS011;7432;48.728;9.154;2022-12-08T01:37:13;10.67;;;9.43;;
14688;SDS011;7432;48.728;9.154;2022-12-08T01:39:39;10.50;;;9.33;;
14688;SDS011;7432;48.728;9.154;2022-12-08T01:42:07;11.70;;;9.43;;
14688;SDS011;7432;48.728;9.154;2022-12-08T01:44:53;10.73;;;9.20;;
14688;SDS011;7432;48.728;9.154;2022-12-08T01:47:24;11.73;;;8.80;;
14688;SDS011;7432;48.728;9.154;2022-12-08T01:49:55;11.27;;;9.60;;
14688;SDS011;7432;48.728;9.154;2022-12-08T01:52:23;10.87;;;8.93;;
14688;SDS011;7432;48.728;9.154;2022-12-08T01:54:54;10.40;;;9.20;;
14688;SDS011;7432;48.728;9.154;2022-12-08T01:57:24;11.37;;;9.90;;
14688;SDS011;7432;48.728;9.154;2022-12-08T01:59:56;10.47;;;9.37;;
14688;SDS011;7432;48.728;9.154;2022-12-08T02:02:28;11.43;;;9.63;;
14688;SDS011;7432;48.728;9.154;2022-12-08T02:05:00;13.53;;;9.87;;
14688;SDS011;7432;48.728;9.154;2022-12-08T02:07:28;10.57;;;9.00;;
14688;SDS011;7432;48.728;9.154;2022-12-08T02:09:55;11.17;;;8.70;;
14688;SDS011;7432;48.728;9.154;2022-12-08T02:12:22;9.37;;;8.37;;
14688;SDS011;7432;48.728;9.154;2022-12-08T02:14:49;10.77;;;8.90;;
14688;SDS011;7432;48.728;9.154;2022-12-08T02:17:21;10.33;;;9.17;;
14688;SDS011;7432;48.728;9.154;2022-12-08T02:22:48;12.27;;;9.03;;
14688;SDS011;7432;48.728;9.154;2022-12-08T02:25:21;9.90;;;8.77;;
14688;SDS011;7432;48.728;9.154;2022-12-08T02:27:59;11.60;;;9.10;;
14688;SDS011;7432;48.728;9.154;2022-12-08T02:30:32;11.00;;;9.37;;
14688;SDS011;7432;48.728;9.154;2022-12-08T02:33:18;10.93;;;9.57;;
14688;SDS011;7432;48.728;9.154;2022-12-08T02:36:09;10.03;;;8.83;;
14688;SDS011;7432;48.728;9.154;2022-12-08T02:38:44;10.10;;;8.87;;
14688;SDS011;7432;48.728;9.154;2022-12-08T02:41:19;11.60;;;8.57;;
14688;SDS011;7432;48.728;9.154;2022-12-08T02:43:55;11.03;;;9.10;;
14688;SDS011;7432;48.728;9.154;2022-12-08T02:46:27;10.47;;;9.27;;
14688;SDS011;7432;48.728;9.154;2022-12-08T02:48:57;11.67;;;9.77;;
14688;SDS011;7432;48.728;9.154;2022-12-08T02:51:26;10.70;;;9.60;;
14688;SDS011;7432;48.728;9.154;2022-12-08T02:53:52;10.10;;;8.90;;
14688;SDS011;7432;48.728;9.154;2022-12-08T02:56:25;10.30;;;9.20;;
14688;SDS011;7432;48.728;9.154;2022-12-08T02:59:07;11.17;;;9.87;;
14688;SDS011;7432;48.728;9.154;2022-12-08T03:01:47;10.80;;;9.43;;
14688;SDS011;7432;48.728;9.154;2022-12-08T03:04:25;10.83;;;9.43;;
14688;SDS011;7432;48.728;9.154;2022-12-08T03:06:58;12.80;;;8.60;;
14688;SDS011;7432;48.728;9.154;2022-12-08T03:09:33;10.70;;;9.03;;
14688;SDS011;7432;48.728;9.154;2022-12-08T03:12:04;11.53;;;10.27;;
14688;SDS011;7432;48.728;9.154;2022-12-08T03:14:37;11.50;;;10.07;;
14688;SDS011;7432;48.728;9.154;2022-12-08T03:17:06;11.70;;;10.37;;
14688;SDS011;7432;48.728;9.154;2022-12-08T03:19:34;11.87;;;10.27;;
14688;SDS011;7432;48.728;9.154;2022-12-08T03:22:05;11.20;;;9.70;;
14688;SDS011;7432;48.728;9.154;2022-12-08T03:24:33;14.23;;;9.60;;
14688;SDS011;7432;48.728;9.154;2022-12-08T03:27:03;13.03;;;10.13;;
14688;SDS011;7432;48.728;9.154;2022-12-08T03:29:33;11.90;;;9.67;;
14688;SDS011;7432;48.728;9.154;2022-12-08T03:32:07;10.63;;;9.47;;
14688;SDS011;7432;48.728;9.154;2022-12-08T03:34:41;11.87;;;9.80;;
14688;SDS011;7432;48.728;9.154;2022-12-08T03:37:13;12.70;;;10.43;;
14688;SDS011;7432;48.728;9.154;2022-12-08T03:39:39;12.17;;;9.90;;
14688;SDS011;7432;48.728;9.154;2022-12-08T03:42:06;11.93;;;9.83;;
14688;SDS011;7432;48.728;9.154;2022-12-08T03:44:33;10.87;;;9.73;;
14688;SDS011;7432;48.728;9.154;2022-12-08T03:46:59;12.80;;;10.27;;
14688;SDS011;7432;48.728;9.154;2022-12-08T03:49:25;11.13;;;10.03;;
14688;SDS011;7432;48.728;9.154;2022-12-08T03:51:52;11.13;;;9.67;;
14688;SDS011;7432;48.728;9.154;2022-12-08T03:54:20;11.17;;;9.93;;
14688;SDS011;7432;48.728;9.154;2022-12-08T03:56:46;14.20;;;10.40;;
14688;SDS011;7432;48.728;9.154;2022-12-08T03:59:12;11.20;;;10.00;;
14688;SDS011;7432;48.728;9.154;2022-12-08T04:01:39;13.60;;;10.70;;
14688;SDS011;7432;48.728;9.154;2022-12-08T04:04:05;11.60;;;9.87;;
14688;SDS011;7432;48.728;9.154;2022-12-08T04:06:32;10.60;;;9.50;;
14688;SDS011;7432;48.728;9.154;2022-12-08T04:08:58;12.13;;;10.03;;
14688;SDS011;7432;48.728;9.154;2022-12-08T04:11:26;11.00;;;9.87;;
14688;SDS011;7432;48.728;9.154;2022-12-08T04:13:52;13.60;;;10.90;;
14688;SDS011;7432;48.728;9.154;2022-12-08T04:16:19;10.80;;;9.20;;
14688;SDS011;7432;48.728;9.154;2022-12-08T04:18:48;12.90;;;9.20;;
14688;SDS011;7432;48.728;9.154;2022-12-08T04:21:15;11.30;;;10.03;;
14688;SDS011;7432;48.728;9.154;2022-12-08T04:23:42;12.93;;;10.17;;
14688;SDS011;7432;48.728;9.154;2022-12-08T04:26:09;13.00;;;10.60;;
14688;SDS011;7432;48.728;9.154;2022-12-08T04:28:37;12.53;;;10.00;;
14688;SDS011;7432;48.728;9.154;2022-12-08T04:31:04;12.73;;;10.03;;
14688;SDS011;7432;48.728;9.154;2022-12-08T04:33:31;11.53;;;9.43;;
14688;SDS011;7432;48.728;9.154;2022-12-08T04:35:57;13.40;;;10.27;;
14688;SDS011;7432;48.728;9.154;2022-12-08T04:38:23;11.00;;;9.00;;
14688;SDS011;7432;48.728;9.154;2022-12-08T04:40:50;11.13;;;9.83;;
14688;SDS011;7432;48.728;9.154;2022-12-08T04:43:16;11.53;;;8.87;;
14688;SDS011;7432;48.728;9.154;2022-12-08T04:45:44;12.00;;;9.30;;
14688;SDS011;7432;48.728;9.154;2022-12-08T04:48:11;11.87;;;9.47;;
14688;SDS011;7432;48.728;9.154;2022-12-08T04:50:38;10.33;;;8.97;;
14688;SDS011;7432;48.728;9.154;2022-12-08T04:53:06;10.00;;;9.00;;
14688;SDS011;7432;48.728;9.154;2022-12-08T04:55:32;12.40;;;10.10;;
14688;SDS011;7432;48.728;9.154;2022-12-08T04:57:59;10.60;;;9.20;;
14688;SDS011;7432;48.728;9.154;2022-12-08T05:00:25;14.30;;;10.90;;
14688;SDS011;7432;48.728;9.154;2022-12-08T05:02:53;10.77;;;9.30;;
14688;SDS011;7432;48.728;9.154;2022-12-08T05:05:19;11.10;;;8.97;;
14688;SDS011;7432;48.728;9.154;2022-12-08T05:07:46;10.13;;;8.77;;
14688;SDS011;7432;48.728;9.154;2022-12-08T05:10:12;11.60;;;9.77;;
14688;SDS011;7432;48.728;9.154;2022-12-08T05:12:38;11.60;;;9.43;;
14688;SDS011;7432;48.728;9.154;2022-12-08T05:15:05;12.43;;;10.37;;
14688;SDS011;7432;48.728;9.154;2022-12-08T05:17:32;10.80;;;9.53;;
14688;SDS011;7432;48.728;9.154;2022-12-08T05:20:00;12.17;;;10.23;;
14688;SDS011;7432;48.728;9.154;2022-12-08T05:22:27;10.27;;;8.63;;
14688;SDS011;7432;48.728;9.154;2022-12-08T05:24:53;11.83;;;9.27;;
14688;SDS011;7432;48.728;9.154;2022-12-08T05:27:19;11.17;;;9.73;;
14688;SDS011;7432;48.728;9.154;2022-12-08T05:29:46;10.60;;;9.13;;
14688;SDS011;7432;48.728;9.154;2022-12-08T05:32:12;11.30;;;9.87;;
14688;SDS011;7432;48.728;9.154;2022-12-08T05:34:39;11.33;;;9.43;;
14688;SDS011;7432;48.728;9.154;2022-12-08T05:37:06;11.90;;;9.23;;
14688;SDS011;7432;48.728;9.154;2022-12-08T05:39:33;10.53;;;9.40;;
14688;SDS011;7432;48.728;9.154;2022-12-08T05:41:59;10.40;;;9.13;;
14688;SDS011;7432;48.728;9.154;2022-12-08T05:44:26;10.73;;;9.33;;
14688;SDS011;7432;48.728;9.154;2022-12-08T05:46:52;12.93;;;9.70;;
14688;SDS011;7432;48.728;9.154;2022-12-08T05:49:18;12.23;;;9.80;;
14688;SDS011;7432;48.728;9.154;2022-12-08T05:51:45;10.27;;;9.27;;
14688;SDS011;7432;48.728;9.154;2022-12-08T05:54:12;11.70;;;8.53;;
14688;SDS011;7432;48.728;9.154;2022-12-08T05:56:39;13.77;;;8.50;;
14688;SDS011;7432;48.728;9.154;2022-12-08T05:59:05;12.30;;;9.30;;
14688;SDS011;7432;48.728;9.154;2022-12-08T06:01:32;10.37;;;9.13;;
14688;SDS011;7432;48.728;9.154;2022-12-08T06:03:59;11.60;;;9.77;;
14688;SDS011;7432;48.728;9.154;2022-12-08T06:06:27;10.90;;;9.77;;
14688;SDS011;7432;48.728;9.154;2022-12-08T06:08:54;11.40;;;9.57;;
14688;SDS011;7432;48.728;9.154;2022-12-08T06:11:22;10.90;;;9.80;;
14688;SDS011;7432;48.728;9.154;2022-12-08T06:13:51;10.03;;;8.67;;
14688;SDS011;7432;48.728;9.154;2022-12-08T06:16:18;13.73;;;9.70;;
14688;SDS011;7432;48.728;9.154;2022-12-08T06:18:45;11.00;;;9.53;;
14688;SDS011;7432;48.728;9.154;2022-12-08T06:21:11;10.93;;;9.23;;
14688;SDS011;7432;48.728;9.154;2022-12-08T06:23:39;11.83;;;9.13;;
14688;SDS011;7432;48.728;9.154;2022-12-08T06:26:07;10.37;;;9.27;;
14688;SDS011;7432;48.728;9.154;2022-12-08T06:28:37;9.80;;;8.67;;
14688;SDS011;7432;48.728;9.154;2022-12-08T06:31:05;9.40;;;8.43;;
14688;SDS011;7432;48.728;9.154;2022-12-08T06:33:33;12.53;;;9.90;;
14688;SDS011;7432;48.728;9.154;2022-12-08T06:36:00;11.53;;;9.87;;
14688;SDS011;7432;48.728;9.154;2022-12-08T06:38:26;11.20;;;9.53;;
14688;SDS011;7432;48.728;9.154;2022-12-08T06:40:52;10.77;;;9.37;;
14688;SDS011;7432;48.728;9.154;2022-12-08T06:43:19;12.67;;;9.70;;
14688;SDS011;7432;48.728;9.154;2022-12-08T06:45:47;10.33;;;8.23;;
14688;SDS011;7432;48.728;9.154;2022-12-08T06:48:15;10.13;;;8.70;;
14688;SDS011;7432;48.728;9.154;2022-12-08T06:50:41;11.30;;;10.00;;
14688;SDS011;7432;48.728;9.154;2022-12-08T06:53:09;10.80;;;9.70;;
14688;SDS011;7432;48.728;9.154;2022-12-08T06:55:36;12.53;;;9.67;;
14688;SDS011;7432;48.728;9.154;2022-12-08T06:58:02;10.40;;;9.13;;
14688;SDS011;7432;48.728;9.154;2022-12-08T07:00:29;12.60;;;9.00;;
14688;SDS011;7432;48.728;9.154;2022-12-08T07:02:56;10.33;;;9.23;;
14688;SDS011;7432;48.728;9.154;2022-12-08T07:05:23;9.80;;;8.80;;
14688;SDS011;7432;48.728;9.154;2022-12-08T07:07:49;11.70;;;9.20;;
14688;SDS011;7432;48.728;9.154;2022-12-08T07:10:16;12.70;;;9.13;;
14688;SDS011;7432;48.728;9.154;2022-12-08T07:12:42;10.17;;;9.17;;
14688;SDS011;7432;48.728;9.154;2022-12-08T07:15:09;11.60;;;9.63;;
14688;SDS011;7432;48.728;9.154;2022-12-08T07:17:36;10.37;;;9.23;;
14688;SDS011;7432;48.728;9.154;2022-12-08T07:20:04;11.27;;;8.97;;
14688;SDS011;7432;48.728;9.154;2022-12-08T07:22:31;11.93;;;9.10;;
14688;SDS011;7432;48.728;9.154;2022-12-08T07:24:58;10.80;;;9.30;;
14688;SDS011;7432;48.728;9.154;2022-12-08T07:27:24;15.50;;;9.80;;
14688;SDS011;7432;48.728;9.154;2022-12-08T07:29:51;10.83;;;9.43;;
14688;SDS011;7432;48.728;9.154;2022-12-08T07:32:17;11.37;;;9.53;;
14688;SDS011;7432;48.728;9.154;2022-12-08T07:34:43;12.40;;;9.77;;
14688;SDS011;7432;48.728;9.154;2022-12-08T07:37:11;11.53;;;9.17;;
14688;SDS011;7432;48.728;9.154;2022-12-08T07:39:38;10.97;;;9.23;;
14688;SDS011;7432;48.728;9.154;2022-12-08T07:42:04;13.57;;;9.23;;
14688;SDS011;7432;48.728;9.154;2022-12-08T07:44:31;10.27;;;8.90;;
14688;SDS011;7432;48.728;9.154;2022-12-08T07:46:57;12.00;;;8.97;;
14688;SDS011;7432;48.728;9.154;2022-12-08T07:49:23;13.07;;;10.23;;
14688;SDS011;7432;48.728;9.154;2022-12-08T07:51:50;12.17;;;10.20;;
14688;SDS011;7432;48.728;9.154;2022-12-08T07:54:17;10.67;;;9.40;;
14688;SDS011;7432;48.728;9.154;2022-12-08T07:56:44;8.90;;;7.93;;
14688;SDS011;7432;48.728;9.154;2022-12-08T07:59:10;9.03;;;7.53;;
14688;SDS011;7432;48.728;9.154;2022-12-08T08:01:38;10.20;;;8.37;;
14688;SDS011;7432;48.728;9.154;2022-12-08T08:04:04;9.33;;;8.33;;
14688;SDS011;7432;48.728;9.154;2022-12-08T08:06:31;10.90;;;9.67;;
14688;SDS011;7432;48.728;9.154;2022-12-08T08:08:58;10.77;;;9.30;;
14688;SDS011;7432;48.728;9.154;2022-12-08T08:11:26;8.83;;;8.00;;
14688;SDS011;7432;48.728;9.154;2022-12-08T08:13:53;9.27;;;8.37;;
14688;SDS011;7432;48.728;9.154;2022-12-08T08:16:21;9.90;;;8.73;;
14688;SDS011;7432;48.728;9.154;2022-12-08T08:18:48;10.40;;;9.40;;
14688;SDS011;7432;48.728;9.154;2022-12-08T08:21:16;10.37;;;9.30;;
14688;SDS011;7432;48.728;9.154;2022-12-08T08:23:44;10.30;;;8.20;;
14688;SDS011;7432;48.728;9.154;2022-12-08T08:26:10;8.57;;;7.77;;
14688;SDS011;7432;48.728;9.154;2022-12-08T08:28:38;9.97;;;8.97;;
14688;SDS011;7432;48.728;9.154;2022-12-08T08:31:05;8.70;;;7.80;;
14688;SDS011;7432;48.728;9.154;2022-12-08T08:33:31;9.33;;;8.43;;
14688;SDS011;7432;48.728;9.154;2022-12-08T08:35:58;10.13;;;8.43;;
14688;SDS011;7432;48.728;9.154;2022-12-08T08:38:25;9.97;;;8.80;;
14688;SDS011;7432;48.728;9.154;2022-12-08T08:40:51;9.90;;;9.00;;
14688;SDS011;7432;48.728;9.154;2022-12-08T08:43:18;8.13;;;7.33;;
14688;SDS011;7432;48.728;9.154;2022-12-08T08:45:58;9.40;;;8.50;;
14688;SDS011;7432;48.728;9.154;2022-12-08T08:48:26;9.47;;;8.33;;
14688;SDS011;7432;48.728;9.154;2022-12-08T08:50:53;10.50;;;9.40;;
14688;SDS011;7432;48.728;9.154;2022-12-08T08:53:19;10.17;;;9.07;;
14688;SDS011;7432;48.728;9.154;2022-12-08T08:55:46;8.07;;;7.33;;
14688;SDS011;7432;48.728;9.154;2022-12-08T08:58:13;8.90;;;8.10;;
14688;SDS011;7432;48.728;9.154;2022-12-08T09:00:39;12.47;;;9.17;;
14688;SDS011;7432;48.728;9.154;2022-12-08T09:03:07;9.50;;;8.43;;
14688;SDS011;7432;48.728;9.154;2022-12-08T09:05:34;10.23;;;8.53;;
14688;SDS011;7432;48.728;9.154;2022-12-08T09:08:02;11.70;;;9.00;;
14688;SDS011;7432;48.728;9.154;2022-12-08T09:10:29;10.20;;;9.07;;
14688;SDS011;7432;48.728;9.154;2022-12-08T09:12:55;10.27;;;9.17;;
14688;SDS011;7432;48.728;9.154;2022-12-08T09:15:22;9.67;;;8.77;;
14688;SDS011;7432;48.728;9.154;2022-12-08T09:17:48;9.83;;;8.83;;
14688;SDS011;7432;48.728;9.154;2022-12-08T09:20:16;9.60;;;8.60;;
14688;SDS011;7432;48.728;9.154;2022-12-08T09:22:43;8.47;;;7.70;;
14688;SDS011;7432;48.728;9.154;2022-12-08T09:25:09;9.80;;;8.80;;
14688;SDS011;7432;48.728;9.154;2022-12-08T09:27:35;9.57;;;8.27;;
14688;SDS011;7432;48.728;9.154;2022-12-08T09:30:02;9.93;;;8.40;;
14688;SDS011;7432;48.728;9.154;2022-12-08T09:32:29;9.60;;;8.60;;
14688;SDS011;7432;48.728;9.154;2022-12-08T09:34:55;10.07;;;8.97;;
14688;SDS011;7432;48.728;9.154;2022-12-08T09:37:23;9.33;;;8.43;;
14688;SDS011;7432;48.728;9.154;2022-12-08T09:39:49;8.70;;;7.60;;
14688;SDS011;7432;48.728;9.154;2022-12-08T09:42:16;10.47;;;9.10;;
14688;SDS011;7432;48.728;9.154;2022-12-08T09:44:54;8.33;;;7.53;;
14688;SDS011;7432;48.728;9.154;2022-12-08T09:47:28;9.30;;;8.00;;
14688;SDS011;7432;48.728;9.154;2022-12-08T09:49:58;9.57;;;8.17;;
14688;SDS011;7432;48.728;9.154;2022-12-08T09:52:31;9.40;;;8.40;;
14688;SDS011;7432;48.728;9.154;2022-12-08T09:55:02;9.23;;;8.10;;
14688;SDS011;7432;48.728;9.154;2022-12-08T09:57:34;8.63;;;7.83;;
14688;SDS011;7432;48.728;9.154;2022-12-08T10:00:03;8.27;;;7.53;;
14688;SDS011;7432;48.728;9.154;2022-12-08T10:02:31;8.47;;;7.67;;
14688;SDS011;7432;48.728;9.154;2022-12-08T10:04:57;9.23;;;8.27;;
14688;SDS011;7432;48.728;9.154;2022-12-08T10:07:26;8.30;;;7.23;;
14688;SDS011;7432;48.728;9.154;2022-12-08T10:10:02;8.40;;;7.50;;
14688;SDS011;7432;48.728;9.154;2022-12-08T10:12:38;8.30;;;7.50;;
14688;SDS011;7432;48.728;9.154;2022-12-08T10:15:16;9.40;;;7.73;;
14688;SDS011;7432;48.728;9.154;2022-12-08T10:17:55;9.47;;;8.20;;
14688;SDS011;7432;48.728;9.154;2022-12-08T10:20:28;9.30;;;8.27;;
14688;SDS011;7432;48.728;9.154;2022-12-08T10:23:06;9.00;;;8.20;;
14688;SDS011;7432;48.728;9.154;2022-12-08T10:25:40;9.23;;;8.33;;
14688;SDS011;7432;48.728;9.154;2022-12-08T10:28:10;9.47;;;7.77;;
14688;SDS011;7432;48.728;9.154;2022-12-08T10:30:37;8.33;;;7.43;;
14688;SDS011;7432;48.728;9.154;2022-12-08T10:33:04;8.40;;;7.43;;
14688;SDS011;7432;48.728;9.154;2022-12-08T10:35:41;9.40;;;8.57;;
14688;SDS011;7432;48.728;9.154;2022-12-08T10:38:16;8.63;;;7.73;;
14688;SDS011;7432;48.728;9.154;2022-12-08T10:40:48;8.60;;;7.80;;
14688;SDS011;7432;48.728;9.154;2022-12-08T10:43:17;8.13;;;7.33;;
14688;SDS011;7432;48.728;9.154;2022-12-08T10:45:46;8.23;;;7.43;;
14688;SDS011;7432;48.728;9.154;2022-12-08T10:48:14;7.37;;;6.67;;
14688;SDS011;7432;48.728;9.154;2022-12-08T10:50:44;7.67;;;6.97;;
14688;SDS011;7432;48.728;9.154;2022-12-08T10:53:13;7.93;;;7.20;;
14688;SDS011;7432;48.728;9.154;2022-12-08T10:55:46;8.77;;;7.30;;
14688;SDS011;7432;48.728;9.154;2022-12-08T10:58:24;8.13;;;7.37;;
14688;SDS011;7432;48.728;9.154;2022-12-08T11:00:52;7.30;;;6.70;;
14688;SDS011;7432;48.728;9.154;2022-12-08T11:03:21;7.70;;;7.00;;
14688;SDS011;7432;48.728;9.154;2022-12-08T11:05:54;7.53;;;6.83;;
14688;SDS011;7432;48.728;9.154;2022-12-08T11:08:23;6.40;;;5.90;;
14688;SDS011;7432;48.728;9.154;2022-12-08T11:10:50;7.27;;;6.67;;
14688;SDS011;7432;48.728;9.154;2022-12-08T11:13:19;7.40;;;6.70;;
14688;SDS011;7432;48.728;9.154;2022-12-08T11:15:47;7.00;;;6.40;;
14688;SDS011;7432;48.728;9.154;2022-12-08T11:18:20;7.60;;;6.97;;
14688;SDS011;7432;48.728;9.154;2022-12-08T11:20:55;9.60;;;7.50;;
14688;SDS011;7432;48.728;9.154;2022-12-08T11:23:25;7.90;;;7.20;;
14688;SDS011;7432;48.728;9.154;2022-12-08T11:25:53;7.80;;;7.10;;
14688;SDS011;7432;48.728;9.154;2022-12-08T11:28:23;6.23;;;5.73;;
14688;SDS011;7432;48.728;9.154;2022-12-08T11:30:52;7.90;;;7.10;;
14688;SDS011;7432;48.728;9.154;2022-12-08T11:33:23;8.23;;;7.43;;
14688;SDS011;7432;48.728;9.154;2022-12-08T11:35:52;8.00;;;7.30;;
14688;SDS011;7432;48.728;9.154;2022-12-08T11:38:22;7.97;;;7.17;;
14688;SDS011;7432;48.728;9.154;2022-12-08T11:40:53;8.77;;;6.57;;
14688;SDS011;7432;48.728;9.154;2022-12-08T11:43:24;7.93;;;7.23;;
14688;SDS011;7432;48.728;9.154;2022-12-08T11:45:55;7.50;;;6.80;;
14688;SDS011;7432;48.728;9.154;2022-12-08T11:48:25;7.60;;;6.90;;
14688;SDS011;7432;48.728;9.154;2022-12-08T11:50:58;8.33;;;7.40;;
14688;SDS011;7432;48.728;9.154;2022-12-08T11:53:32;7.90;;;7.10;;
14688;SDS011;7432;48.728;9.154;2022-12-08T11:56:05;8.77;;;7.47;;
14688;SDS011;7432;48.728;9.154;2022-12-08T11:58:40;7.60;;;7.00;;
14688;SDS011;7432;48.728;9.154;2022-12-08T12:01:12;7.50;;;6.77;;
14688;SDS011;7432;48.728;9.154;2022-12-08T12:03:44;6.90;;;6.30;;
14688;SDS011;7432;48.728;9.154;2022-12-08T12:09:16;7.80;;;7.10;;
14688;SDS011;7432;48.728;9.154;2022-12-08T12:11:52;7.83;;;7.10;;
14688;SDS011;7432;48.728;9.154;2022-12-08T12:17:52;6.50;;;5.90;;
14688;SDS011;7432;48.728;9.154;2022-12-08T12:20:23;7.70;;;7.00;;
14688;SDS011;7432;48.728;9.154;2022-12-08T12:22:55;7.30;;;6.60;;
14688;SDS011;7432;48.728;9.154;2022-12-08T12:25:28;7.87;;;7.07;;
14688;SDS011;7432;48.728;9.154;2022-12-08T12:27:56;7.33;;;6.73;;
14688;SDS011;7432;48.728;9.154;2022-12-08T12:30:26;7.10;;;6.50;;
14688;SDS011;7432;48.728;9.154;2022-12-08T12:32:56;7.87;;;6.60;;
14688;SDS011;7432;48.728;9.154;2022-12-08T12:35:28;6.73;;;6.13;;
14688;SDS011;7432;48.728;9.154;2022-12-08T12:37:59;7.23;;;6.53;;
14688;SDS011;7432;48.728;9.154;2022-12-08T12:40:35;7.07;;;6.47;;
14688;SDS011;7432;48.728;9.154;2022-12-08T12:43:12;7.43;;;6.73;;
14688;SDS011;7432;48.728;9.154;2022-12-08T12:45:55;6.80;;;6.30;;
14688;SDS011;7432;48.728;9.154;2022-12-08T12:51:59;6.80;;;6.30;;
14688;SDS011;7432;48.728;9.154;2022-12-08T12:54:26;7.47;;;6.63;;
14688;SDS011;7432;48.728;9.154;2022-12-08T12:56:56;6.53;;;6.03;;
14688;SDS011;7432;48.728;9.154;2022-12-08T12:59:44;6.83;;;6.13;;
14688;SDS011;7432;48.728;9.154;2022-12-08T13:02:16;7.20;;;6.60;;
14688;SDS011;7432;48.728;9.154;2022-12-08T13:04:51;7.10;;;6.50;;
14688;SDS011;7432;48.728;9.154;2022-12-08T13:07:21;6.03;;;5.43;;
14688;SDS011;7432;48.728;9.154;2022-12-08T13:09:53;7.20;;;6.60;;
14688;SDS011;7432;48.728;9.154;2022-12-08T13:12:24;7.40;;;6.80;;
14688;SDS011;7432;48.728;9.154;2022-12-08T13:14:52;6.60;;;6.10;;
14688;SDS011;7432;48.728;9.154;2022-12-08T13:17:26;6.63;;;6.03;;
14688;SDS011;7432;48.728;9.154;2022-12-08T13:19:55;7.73;;;7.13;;
14688;SDS011;7432;48.728;9.154;2022-12-08T13:28:25;7.00;;;6.47;;
14688;SDS011;7432;48.728;9.154;2022-12-08T13:30:54;7.23;;;6.63;;
14688;SDS011;7432;48.728;9.154;2022-12-08T13:33:29;7.60;;;6.97;;
14688;SDS011;7432;48.728;9.154;2022-12-08T13:36:02;7.50;;;6.90;;
14688;SDS011;7432;48.728;9.154;2022-12-08T13:38:35;6.63;;;6.13;;
14688;SDS011;7432;48.728;9.154;2022-12-08T13:41:05;7.30;;;6.60;;
14688;SDS011;7432;48.728;9.154;2022-12-08T13:43:40;7.40;;;6.80;;
14688;SDS011;7432;48.728;9.154;2022-12-08T13:46:11;6.80;;;6.30;;
14688;SDS011;7432;48.728;9.154;2022-12-08T13:48:44;6.83;;;6.33;;
14688;SDS011;7432;48.728;9.154;2022-12-08T13:51:15;7.67;;;7.07;;
14688;SDS011;7432;48.728;9.154;2022-12-08T13:53:44;6.77;;;6.17;;
14688;SDS011;7432;48.728;9.154;2022-12-08T13:56:20;6.60;;;6.03;;
14688;SDS011;7432;48.728;9.154;2022-12-08T13:58:49;7.20;;;6.60;;
14688;SDS011;7432;48.728;9.154;2022-12-08T14:01:16;7.23;;;6.63;;
14688;SDS011;7432;48.728;9.154;2022-12-08T14:03:47;7.20;;;6.70;;
14688;SDS011;7432;48.728;9.154;2022-12-08T14:06:16;8.07;;;7.37;;
14688;SDS011;7432;48.728;9.154;2022-12-08T14:08:45;7.20;;;6.53;;
14688;SDS011;7432;48.728;9.154;2022-12-08T14:11:19;7.87;;;7.07;;
14688;SDS011;7432;48.728;9.154;2022-12-08T14:14:00;7.47;;;6.87;;
14688;SDS011;7432;48.728;9.154;2022-12-08T14:16:29;7.30;;;6.77;;
14688;SDS011;7432;48.728;9.154;2022-12-08T14:19:05;7.57;;;6.80;;
14688;SDS011;7432;48.728;9.154;2022-12-08T14:21:40;7.93;;;7.23;;
14688;SDS011;7432;48.728;9.154;2022-12-08T14:24:07;7.93;;;7.33;;
14688;SDS011;7432;48.728;9.154;2022-12-08T14:26:35;7.67;;;6.83;;
14688;SDS011;7432;48.728;9.154;2022-12-08T14:29:03;7.90;;;7.27;;
14688;SDS011;7432;48.728;9.154;2022-12-08T14:31:32;7.60;;;7.00;;
14688;SDS011;7432;48.728;9.154;2022-12-08T14:33:59;9.27;;;8.27;;
14688;SDS011;7432;48.728;9.154;2022-12-08T14:36:26;7.37;;;6.77;;
14688;SDS011;7432;48.728;9.154;2022-12-08T14:38:53;8.17;;;7.37;;
14688;SDS011;7432;48.728;9.154;2022-12-08T14:41:24;8.03;;;7.17;;
14688;SDS011;7432;48.728;9.154;2022-12-08T14:43:58;7.50;;;6.83;;
14688;SDS011;7432;48.728;9.154;2022-12-08T14:46:28;7.50;;;7.00;;
14688;SDS011;7432;48.728;9.154;2022-12-08T14:48:54;7.60;;;7.00;;
14688;SDS011;7432;48.728;9.154;2022-12-08T14:51:24;8.00;;;7.37;;
14688;SDS011;7432;48.728;9.154;2022-12-08T14:53:54;8.03;;;7.40;;
14688;SDS011;7432;48.728;9.154;2022-12-08T14:56:23;8.07;;;7.40;;
14688;SDS011;7432;48.728;9.154;2022-12-08T14:59:00;6.77;;;6.17;;
14688;SDS011;7432;48.728;9.154;2022-12-08T15:01:30;7.33;;;6.73;;
14688;SDS011;7432;48.728;9.154;2022-12-08T15:03:59;8.00;;;7.30;;
14688;SDS011;7432;48.728;9.154;2022-12-08T15:06:27;8.73;;;7.83;;
14688;SDS011;7432;48.728;9.154;2022-12-08T15:08:55;9.03;;;8.27;;
14688;SDS011;7432;48.728;9.154;2022-12-08T15:11:25;8.93;;;8.13;;
14688;SDS011;7432;48.728;9.154;2022-12-08T15:13:56;8.53;;;7.70;;
14688;SDS011;7432;48.728;9.154;2022-12-08T15:16:27;9.40;;;8.10;;
14688;SDS011;7432;48.728;9.154;2022-12-08T15:19:02;8.90;;;8.10;;
14688;SDS011;7432;48.728;9.154;2022-12-08T15:21:33;8.23;;;7.43;;
14688;SDS011;7432;48.728;9.154;2022-12-08T15:24:03;8.70;;;7.90;;